Time;durP1;ratioP1;P1;durP2;ratioP2;P2;SDS_P1;SDS_P2;PMS_P1;PMS_P2;Temp;Humidity;BMP_temperature;BMP_pressure;BME280_temperature;BME280_humidity;BME280_pressure;Samples;Min_cycle;Max_cycle;Signal;HPM_P1;HPM_P2
2023/09/28 00:02:04;;;;;;;11.67;10.30;;;10.10;99.90;;;;;;8244740;28;20353;-64
2023/09/28 00:06:06;;;;;;;13.50;9.73;;;10.10;99.90;;;;;;8255622;28;20181;-67
2023/09/28 00:10:13;;;;;;;12.20;9.80;;;10.10;99.90;;;;;;8258042;28;20184;-64
2023/09/28 00:14:14;;;;;;;10.57;9.40;;;10.00;99.90;;;;;;8254149;28;20188;-67
2023/09/28 00:18:16;;;;;;;11.57;9.83;;;10.00;99.90;;;;;;8243825;28;20188;-66
2023/09/28 00:22:16;;;;;;;10.73;9.57;;;10.00;99.90;;;;;;8257018;28;20222;-64
2023/09/28 00:26:19;;;;;;;10.87;8.80;;;9.90;99.90;;;;;;8239579;28;20572;-64
2023/09/28 00:30:22;;;;;;;11.40;8.87;;;9.80;99.90;;;;;;8256587;28;20179;-64
2023/09/28 00:34:23;;;;;;;9.60;8.53;;;9.70;99.90;;;;;;8246133;28;20193;-65
2023/09/28 00:38:23;;;;;;;10.67;9.40;;;9.60;99.90;;;;;;8258794;28;20192;-64
2023/09/28 00:42:28;;;;;;;10.70;9.33;;;9.50;99.90;;;;;;8258926;28;20230;-64
2023/09/28 00:46:32;;;;;;;9.33;8.43;;;9.50;99.90;;;;;;8243907;28;20185;-67
2023/09/28 00:50:33;;;;;;;9.83;8.73;;;9.40;99.90;;;;;;8242570;28;20288;-65
2023/09/28 00:54:35;;;;;;;10.40;9.03;;;9.40;99.90;;;;;;8262974;28;20232;-66
2023/09/28 00:58:38;;;;;;;10.60;9.50;;;9.40;99.90;;;;;;8255337;28;20211;-64
2023/09/28 01:02:40;;;;;;;11.67;9.10;;;9.40;99.90;;;;;;8255644;28;20241;-64
2023/09/28 01:06:42;;;;;;;12.27;9.77;;;9.40;99.90;;;;;;8254603;28;20338;-65
2023/09/28 01:10:43;;;;;;;11.37;9.67;;;9.40;99.90;;;;;;8246231;28;20218;-63
2023/09/28 01:14:45;;;;;;;13.47;9.90;;;9.40;99.90;;;;;;8257393;28;20195;-65
2023/09/28 01:18:46;;;;;;;10.73;9.63;;;9.40;99.90;;;;;;8256911;28;20189;-65
2023/09/28 01:22:49;;;;;;;12.17;9.23;;;9.40;99.90;;;;;;8255569;28;20222;-66
2023/09/28 01:26:57;;;;;;;10.77;9.47;;;9.40;99.90;;;;;;8239457;28;20210;-68
2023/09/28 01:30:58;;;;;;;11.33;9.83;;;9.40;99.90;;;;;;8272888;28;20175;-68
2023/09/28 01:34:59;;;;;;;11.47;9.60;;;9.30;99.90;;;;;;8271697;28;20175;-68
2023/09/28 01:39:12;;;;;;;12.37;10.37;;;9.30;99.90;;;;;;8265047;28;20179;-69
2023/09/28 01:43:13;;;;;;;14.73;11.37;;;9.40;99.90;;;;;;8270362;28;20231;-69
2023/09/28 01:47:18;;;;;;;11.33;10.23;;;9.40;99.90;;;;;;8260916;28;20190;-67
2023/09/28 01:51:21;;;;;;;9.30;8.33;;;9.40;99.90;;;;;;8255256;28;20181;-68
2023/09/28 01:55:22;;;;;;;11.47;8.00;;;9.30;99.90;;;;;;8254228;28;20187;-68
2023/09/28 01:59:22;;;;;;;11.27;9.20;;;9.20;99.90;;;;;;8273696;28;20192;-68
2023/09/28 02:03:41;;;;;;;12.23;9.47;;;9.10;99.90;;;;;;8275742;28;20232;-68
2023/09/28 02:07:45;;;;;;;11.27;10.13;;;9.10;99.90;;;;;;8276944;28;20199;-68
2023/09/28 02:11:49;;;;;;;10.40;9.40;;;9.00;99.90;;;;;;8268502;28;20184;-68
2023/09/28 02:15:52;;;;;;;10.67;9.53;;;9.00;99.90;;;;;;8261680;28;20180;-68
2023/09/28 02:19:58;;;;;;;12.33;10.43;;;9.00;99.90;;;;;;8268104;28;20191;-68
2023/09/28 02:24:01;;;;;;;11.33;10.10;;;8.90;99.90;;;;;;8263327;28;20247;-68
2023/09/28 02:28:02;;;;;;;14.40;9.77;;;8.90;99.90;;;;;;8262359;28;20207;-66
2023/09/28 02:32:03;;;;;;;10.13;9.13;;;8.90;99.90;;;;;;8258297;28;20194;-66
2023/09/28 02:36:04;;;;;;;10.53;9.50;;;8.80;99.90;;;;;;8260779;28;20183;-66
2023/09/28 02:40:05;;;;;;;11.10;9.80;;;8.80;99.90;;;;;;8259678;28;20274;-66
2023/09/28 02:44:06;;;;;;;10.47;9.30;;;8.70;99.90;;;;;;8253642;28;20285;-66
2023/09/28 02:48:08;;;;;;;11.63;9.50;;;8.70;99.90;;;;;;8247140;28;20247;-64
2023/09/28 02:52:10;;;;;;;10.63;8.57;;;8.60;99.90;;;;;;8243223;28;20267;-65
2023/09/28 02:56:12;;;;;;;10.23;8.63;;;8.60;99.90;;;;;;8247329;28;20188;-66
2023/09/28 03:00:28;;;;;;;9.57;8.60;;;8.50;99.90;;;;;;8245928;28;20251;-65
2023/09/28 03:04:33;;;;;;;11.07;9.70;;;8.40;99.90;;;;;;8259080;28;20267;-65
2023/09/28 03:08:34;;;;;;;11.23;9.17;;;8.40;99.90;;;;;;8263443;28;20255;-65
2023/09/28 03:12:35;;;;;;;10.00;8.97;;;8.40;99.90;;;;;;8256884;28;20251;-66
2023/09/28 03:16:36;;;;;;;9.73;8.73;;;8.30;99.90;;;;;;8257876;28;20187;-65
2023/09/28 03:20:38;;;;;;;9.47;8.53;;;8.30;99.90;;;;;;8247550;28;20191;-64
2023/09/28 03:24:39;;;;;;;9.73;8.20;;;8.20;99.90;;;;;;8256970;28;20230;-64
2023/09/28 03:28:40;;;;;;;9.80;8.80;;;8.20;99.90;;;;;;8248960;28;20439;-65
2023/09/28 03:32:41;;;;;;;10.47;8.57;;;8.10;99.90;;;;;;8248884;28;20187;-64
2023/09/28 03:36:42;;;;;;;8.53;7.67;;;8.10;99.90;;;;;;8259585;28;20265;-67
2023/09/28 03:40:44;;;;;;;8.87;7.97;;;8.00;99.90;;;;;;8275806;28;20176;-68
2023/09/28 03:44:45;;;;;;;9.83;7.30;;;7.90;99.90;;;;;;8259339;28;20518;-67
2023/09/28 03:48:46;;;;;;;9.97;8.77;;;7.90;99.90;;;;;;8258279;28;20194;-63
2023/09/28 03:52:47;;;;;;;9.60;8.13;;;7.90;99.90;;;;;;8248740;28;20214;-65
2023/09/28 03:56:48;;;;;;;9.20;8.10;;;7.90;99.90;;;;;;8254994;28;20187;-68
2023/09/28 04:00:50;;;;;;;9.93;8.23;;;7.90;99.90;;;;;;8261090;28;20692;-68
2023/09/28 04:04:55;;;;;;;9.00;8.10;;;7.80;99.90;;;;;;8260213;28;20200;-67
2023/09/28 04:09:07;;;;;;;9.83;7.83;;;7.70;99.90;;;;;;8269666;28;20226;-68
2023/09/28 04:13:09;;;;;;;8.70;7.80;;;7.60;99.90;;;;;;8257463;28;20194;-67
2023/09/28 04:17:22;;;;;;;8.20;7.40;;;7.60;99.90;;;;;;8268069;28;20212;-69
2023/09/28 04:21:29;;;;;;;8.70;7.90;;;7.60;99.90;;;;;;8265886;28;20459;-67
2023/09/28 04:25:32;;;;;;;7.40;6.63;;;7.60;99.90;;;;;;8260217;28;20218;-67
2023/09/28 04:29:34;;;;;;;7.37;6.67;;;7.50;99.90;;;;;;8274920;28;20234;-68
2023/09/28 04:33:35;;;;;;;8.63;6.47;;;7.50;99.90;;;;;;8263451;28;20187;-67
2023/09/28 04:37:37;;;;;;;7.40;6.70;;;7.50;99.90;;;;;;8279301;28;20186;-68
2023/09/28 04:41:38;;;;;;;7.60;6.80;;;7.40;99.90;;;;;;8273052;28;20346;-69
2023/09/28 04:45:47;;;;;;;7.40;6.63;;;7.40;99.90;;;;;;8256250;28;20313;-68
2023/09/28 04:49:50;;;;;;;8.47;7.57;;;7.40;99.90;;;;;;8271559;28;20171;-68
2023/09/28 04:53:56;;;;;;;8.63;7.73;;;7.40;99.90;;;;;;8263260;28;20270;-69
2023/09/28 04:57:57;;;;;;;8.13;7.33;;;7.40;99.90;;;;;;8262462;28;20254;-66
2023/09/28 05:01:58;;;;;;;10.10;8.50;;;7.40;99.90;;;;;;8256458;28;20199;-66
2023/09/28 05:05:59;;;;;;;9.90;8.90;;;7.50;99.90;;;;;;8257052;28;20225;-65
2023/09/28 05:10:00;;;;;;;11.20;8.77;;;7.50;99.90;;;;;;8246942;28;20191;-65
2023/09/28 05:14:01;;;;;;;11.17;9.30;;;7.60;99.90;;;;;;8258610;28;20271;-69
2023/09/28 05:18:03;;;;;;;11.63;8.87;;;7.70;99.90;;;;;;8245428;28;20269;-69
2023/09/28 05:22:04;;;;;;;10.37;9.17;;;7.80;99.90;;;;;;8260002;28;20196;-70
2023/09/28 05:26:05;;;;;;;12.13;10.00;;;7.90;99.90;;;;;;8255986;28;20235;-70
2023/09/28 05:30:06;;;;;;;12.80;10.77;;;8.10;99.90;;;;;;8258405;28;20614;-69
2023/09/28 05:34:10;;;;;;;14.70;10.17;;;8.20;99.90;;;;;;8258274;28;20571;-70
2023/09/28 05:38:10;;;;;;;12.93;11.60;;;8.40;99.90;;;;;;8258850;28;20186;-69
2023/09/28 05:42:11;;;;;;;12.67;11.13;;;8.50;99.90;;;;;;8241649;28;20540;-70
2023/09/28 05:46:12;;;;;;;12.67;10.87;;;8.60;99.90;;;;;;8262457;28;20234;-70
2023/09/28 05:50:13;;;;;;;12.23;10.37;;;8.70;99.90;;;;;;8254067;28;20191;-70
2023/09/28 05:54:16;;;;;;;15.03;11.10;;;8.90;99.90;;;;;;8261407;28;20271;-69
2023/09/28 05:58:17;;;;;;;12.43;10.97;;;9.00;99.90;;;;;;8263959;28;20538;-70
2023/09/28 06:02:21;;;;;;;13.17;11.73;;;9.10;99.90;;;;;;8262027;28;20713;-69
2023/09/28 06:06:23;;;;;;;17.47;13.53;;;9.30;99.90;;;;;;8264483;28;20195;-70
2023/09/28 06:10:24;;;;;;;15.03;13.37;;;9.50;99.90;;;;;;8248960;28;20234;-70
2023/09/28 06:14:24;;;;;;;19.80;15.33;;;9.70;99.90;;;;;;8260750;28;20343;-69
2023/09/28 06:18:25;;;;;;;24.47;17.63;;;9.90;99.90;;;;;;8261687;28;20283;-67
2023/09/28 06:22:26;;;;;;;21.50;16.83;;;10.20;99.90;;;;;;8249977;28;20223;-70
2023/09/28 06:26:27;;;;;;;20.70;17.93;;;10.40;99.90;;;;;;8259747;28;20209;-68
2023/09/28 06:30:28;;;;;;;24.70;20.50;;;10.70;99.90;;;;;;8248113;28;21330;-69
2023/09/28 06:34:29;;;;;;;32.87;25.00;;;11.00;99.90;;;;;;8263107;28;20197;-69
2023/09/28 06:38:29;;;;;;;40.83;31.23;;;11.20;99.90;;;;;;8263432;28;20190;-69
2023/09/28 06:42:30;;;;;;;38.43;29.53;;;11.50;99.90;;;;;;8247602;28;20218;-70
2023/09/28 06:46:31;;;;;;;29.00;24.43;;;11.90;99.90;;;;;;8259545;28;20193;-69
2023/09/28 06:50:32;;;;;;;32.30;25.33;;;12.30;99.90;;;;;;8260676;28;20263;-69
2023/09/28 06:54:38;;;;;;;43.80;32.37;;;12.60;99.90;;;;;;8257262;28;20183;-69
2023/09/28 06:58:39;;;;;;;43.90;29.07;;;13.10;99.90;;;;;;8250146;28;20184;-70
2023/09/28 07:02:41;;;;;;;29.23;23.63;;;13.50;99.90;;;;;;8248564;28;20238;-70
2023/09/28 07:06:42;;;;;;;24.10;18.77;;;14.00;99.90;;;;;;8247658;28;20194;-71
2023/09/28 07:10:47;;;;;;;28.63;23.90;;;14.30;99.90;;;;;;8249667;28;20240;-70
2023/09/28 07:14:48;;;;;;;22.87;19.73;;;14.70;99.90;;;;;;8241283;28;20184;-71
2023/09/28 07:18:49;;;;;;;20.87;18.37;;;15.00;99.90;;;;;;8260658;28;20318;-69
2023/09/28 07:22:50;;;;;;;20.77;16.87;;;15.20;99.90;;;;;;8248713;28;20529;-70
2023/09/28 07:26:52;;;;;;;21.40;16.17;;;15.40;99.90;;;;;;8248192;28;20207;-70
2023/09/28 07:30:55;;;;;;;16.93;14.67;;;15.70;99.90;;;;;;8247345;28;20211;-70
2023/09/28 07:34:57;;;;;;;15.00;11.60;;;15.90;99.90;;;;;;8254763;28;20275;-71
2023/09/28 07:38:57;;;;;;;14.40;11.27;;;16.20;99.90;;;;;;8259415;28;20194;-71
2023/09/28 07:42:59;;;;;;;15.67;11.47;;;16.60;99.90;;;;;;8260804;28;20230;-71
2023/09/28 07:47:00;;;;;;;12.17;10.23;;;16.80;99.90;;;;;;8257530;28;20641;-71
2023/09/28 07:51:00;;;;;;;11.17;9.57;;;16.90;99.90;;;;;;8246495;28;20183;-70
2023/09/28 07:55:04;;;;;;;13.50;10.67;;;17.20;99.90;;;;;;8247937;28;20202;-68
2023/09/28 07:59:07;;;;;;;14.90;11.77;;;17.50;99.90;;;;;;8261582;28;20200;-71
2023/09/28 08:03:07;;;;;;;9.47;8.07;;;17.70;99.90;;;;;;8257309;28;20208;-71
2023/09/28 08:07:08;;;;;;;7.80;6.47;;;18.00;99.90;;;;;;8266149;28;20197;-71
2023/09/28 08:11:15;;;;;;;11.07;6.33;;;18.30;99.90;;;;;;8259341;28;20183;-71
2023/09/28 08:15:16;;;;;;;7.47;5.87;;;18.70;79.50;;;;;;8262357;28;20207;-70
2023/09/28 08:19:19;;;;;;;8.37;6.13;;;19.00;38.00;;;;;;8247803;28;20180;-71
2023/09/28 08:23:20;;;;;;;7.17;5.53;;;19.30;1.00;;;;;;8251007;28;20277;-71
2023/09/28 08:27:27;;;;;;;6.17;5.50;;;19.60;1.00;;;;;;8264872;28;20199;-72
2023/09/28 08:31:28;;;;;;;8.40;5.60;;;20.00;1.00;;;;;;8250200;28;20264;-71
2023/09/28 08:35:29;;;;;;;6.43;5.43;;;20.20;1.00;;;;;;8247709;28;20184;-70
2023/09/28 08:39:31;;;;;;;10.60;5.90;;;20.50;1.00;;;;;;8243455;28;20498;-72
2023/09/28 08:43:43;;;;;;;10.43;5.77;;;20.70;1.00;;;;;;8258264;28;20217;-68
2023/09/28 08:47:49;;;;;;;10.03;5.83;;;21.00;1.00;;;;;;8257939;28;20273;-71
2023/09/28 08:51:56;;;;;;;9.50;5.83;;;21.20;1.00;;;;;;8242128;28;20185;-68
2023/09/28 08:55:57;;;;;;;9.53;5.10;;;21.40;1.00;;;;;;8258549;28;20248;-70
2023/09/28 08:59:58;;;;;;;8.13;5.00;;;21.60;1.00;;;;;;8258498;28;20197;-71
2023/09/28 09:04:00;;;;;;;10.60;4.70;;;21.70;1.00;;;;;;8244440;28;20266;-73
2023/09/28 09:08:01;;;;;;;7.40;4.30;;;22.00;1.00;;;;;;8241094;28;20197;-70
2023/09/28 09:12:09;;;;;;;6.67;4.63;;;22.20;1.00;;;;;;8231709;28;20191;-71
2023/09/28 09:16:10;;;;;;;4.80;4.30;;;22.40;1.00;;;;;;8255433;28;20415;-70
2023/09/28 09:20:10;;;;;;;6.77;4.23;;;22.50;1.00;;;;;;8263967;28;20191;-71
2023/09/28 09:24:14;;;;;;;6.20;4.37;;;22.70;1.00;;;;;;8267872;28;20218;-71
2023/09/28 09:28:30;;;;;;;7.57;4.17;;;22.80;1.00;;;;;;8250860;28;20632;-72
2023/09/28 09:32:31;;;;;;;7.27;4.93;;;23.00;1.00;;;;;;8248586;28;20184;-68
2023/09/28 09:36:32;;;;;;;6.77;4.10;;;23.10;1.00;;;;;;8262722;28;20191;-71
2023/09/28 09:40:35;;;;;;;10.93;9.33;;;23.20;1.00;;;;;;8246557;28;20187;-71
2023/09/28 09:44:36;;;;;;;11.63;5.53;;;23.40;1.00;;;;;;8249920;28;20796;-71
2023/09/28 09:48:38;;;;;;;6.03;4.07;;;23.50;1.00;;;;;;8263883;28;20207;-69
2023/09/28 09:52:43;;;;;;;12.85;4.30;;;23.60;1.00;;;;;;8266391;28;20171;-72
2023/09/28 09:56:50;;;;;;;5.07;3.90;;;23.70;1.00;;;;;;8253700;28;20588;-70
2023/09/28 10:00:52;;;;;;;7.50;4.10;;;23.90;1.00;;;;;;8264240;28;20180;-71
2023/09/28 10:04:55;;;;;;;7.85;4.20;;;24.00;1.00;;;;;;8259344;28;20232;-69
2023/09/28 10:08:56;;;;;;;7.40;4.55;;;24.10;1.00;;;;;;8262990;28;20204;-71
2023/09/28 10:12:58;;;;;;;9.32;4.07;;;24.20;1.00;;;;;;8262344;28;20195;-69
2023/09/28 10:17:01;;;;;;;7.38;4.15;;;24.30;1.00;;;;;;8246506;28;20188;-69
2023/09/28 10:21:02;;;;;;;7.53;3.92;;;24.40;1.00;;;;;;8251858;28;20187;-69
2023/09/28 10:25:03;;;;;;;4.22;3.67;;;24.50;1.00;;;;;;8259078;28;20208;-70
2023/09/28 10:29:12;;;;;;;10.35;4.22;;;24.60;1.00;;;;;;8260001;28;20195;-70
2023/09/28 10:33:16;;;;;;;5.25;4.50;;;24.70;1.00;;;;;;8245504;28;20442;-68
2023/09/28 10:37:18;;;;;;;4.90;3.92;;;24.80;1.00;;;;;;8261519;28;20188;-72
2023/09/28 10:41:19;;;;;;;8.20;4.43;;;24.80;1.00;;;;;;8261332;28;20188;-70
2023/09/28 10:45:27;;;;;;;9.00;4.30;;;24.90;1.00;;;;;;8246505;28;20274;-72
2023/09/28 10:49:28;;;;;;;5.80;4.03;;;24.90;1.00;;;;;;8263478;28;20496;-71
2023/09/28 10:53:29;;;;;;;7.32;4.80;;;25.00;1.00;;;;;;8252330;28;20196;-69
2023/09/28 10:57:31;;;;;;;7.45;3.70;;;25.10;1.00;;;;;;8243058;28;20227;-69
2023/09/28 11:01:42;;;;;;;7.43;4.82;;;25.10;1.00;;;;;;8262009;28;20265;-68
2023/09/28 11:05:43;;;;;;;6.22;3.60;;;25.20;1.00;;;;;;8261585;28;20203;-70
2023/09/28 11:09:44;;;;;;;7.20;3.70;;;25.20;1.00;;;;;;8257657;28;20235;-70
2023/09/28 11:13:45;;;;;;;7.85;3.70;;;25.30;1.00;;;;;;8249324;28;20203;-68
2023/09/28 11:17:47;;;;;;;10.13;4.22;;;25.30;1.00;;;;;;8260868;28;20216;-70
2023/09/28 11:21:49;;;;;;;4.65;3.35;;;25.30;1.00;;;;;;8263975;28;20182;-71
2023/09/28 11:25:52;;;;;;;7.78;3.53;;;25.40;1.00;;;;;;8245006;28;20215;-69
2023/09/28 11:29:56;;;;;;;5.68;4.10;;;25.50;1.00;;;;;;8260148;28;20203;-69
2023/09/28 11:33:57;;;;;;;6.13;3.53;;;25.60;1.00;;;;;;8261009;28;20199;-69
2023/09/28 11:38:01;;;;;;;8.80;3.80;;;25.60;1.00;;;;;;8259948;28;20586;-70
2023/09/28 11:42:03;;;;;;;8.68;3.78;;;25.60;1.00;;;;;;8260601;28;20187;-68
2023/09/28 11:46:04;;;;;;;5.82;3.92;;;25.70;1.00;;;;;;8259315;28;20575;-66
2023/09/28 11:50:08;;;;;;;6.32;3.45;;;25.70;1.00;;;;;;8247703;28;20183;-68
2023/09/28 11:54:12;;;;;;;5.63;3.75;;;25.80;1.00;;;;;;8259865;28;20275;-72
2023/09/28 11:58:20;;;;;;;6.57;3.75;;;25.80;1.00;;;;;;8245679;28;20183;-70
2023/09/28 12:02:21;;;;;;;4.90;3.40;;;25.90;1.00;;;;;;8244082;28;20195;-69
2023/09/28 12:06:21;;;;;;;7.95;3.88;;;25.90;1.00;;;;;;8245937;28;20268;-66
2023/09/28 12:10:23;;;;;;;8.15;3.53;;;26.00;1.00;;;;;;8260487;28;20250;-71
2023/09/28 12:14:24;;;;;;;7.22;4.13;;;26.10;1.00;;;;;;8258204;28;20180;-69
2023/09/28 12:18:25;;;;;;;6.30;4.00;;;26.20;1.00;;;;;;8247057;28;20194;-68
2023/09/28 12:22:26;;;;;;;9.23;3.58;;;26.20;1.00;;;;;;8263610;28;20306;-69
2023/09/28 12:26:27;;;;;;;4.97;3.33;;;26.10;1.00;;;;;;8244055;28;20223;-69
2023/09/28 12:30:30;;;;;;;6.15;3.55;;;26.20;1.00;;;;;;8262508;28;20279;-64
2023/09/28 12:34:30;;;;;;;5.68;3.30;;;26.20;1.00;;;;;;8241797;28;21555;-69
2023/09/28 12:38:33;;;;;;;5.70;3.33;;;26.20;1.00;;;;;;8262116;28;20247;-70
2023/09/28 12:42:34;;;;;;;4.95;3.30;;;26.30;1.00;;;;;;8261661;28;20180;-67
2023/09/28 12:46:37;;;;;;;4.43;3.00;;;26.30;1.00;;;;;;8261368;28;20188;-70
2023/09/28 12:50:39;;;;;;;7.75;3.42;;;26.40;1.00;;;;;;8249872;28;20179;-68
2023/09/28 12:54:40;;;;;;;5.88;3.47;;;26.50;1.00;;;;;;8247480;28;20187;-69
2023/09/28 12:58:41;;;;;;;5.25;3.15;;;26.40;1.00;;;;;;8261205;28;20187;-71
2023/09/28 13:02:43;;;;;;;6.25;3.50;;;26.40;1.00;;;;;;8248737;28;20214;-70
2023/09/28 13:06:43;;;;;;;3.80;3.17;;;26.50;1.00;;;;;;8263883;28;20505;-68
2023/09/28 13:10:47;;;;;;;7.75;3.28;;;26.60;1.00;;;;;;8248657;28;20478;-69
2023/09/28 13:14:50;;;;;;;7.75;3.97;;;26.60;1.00;;;;;;8245856;28;20187;-69
2023/09/28 13:18:55;;;;;;;4.93;3.58;;;26.40;1.00;;;;;;8244550;28;20191;-69
2023/09/28 13:22:57;;;;;;;6.00;3.63;;;26.50;1.00;;;;;;8249510;28;20215;-70
2023/09/28 13:27:01;;;;;;;3.70;3.13;;;26.40;1.00;;;;;;8261564;28;20230;-69
2023/09/28 13:31:08;;;;;;;6.55;3.47;;;26.50;1.00;;;;;;8258657;28;20383;-68
2023/09/28 13:35:11;;;;;;;5.53;3.22;;;26.60;1.00;;;;;;8245121;28;20199;-67
2023/09/28 13:39:27;;;;;;;6.20;3.28;;;26.60;1.00;;;;;;8250982;28;20218;-70
2023/09/28 13:43:28;;;;;;;9.15;3.60;;;26.60;1.00;;;;;;8259072;28;20203;-70
2023/09/28 13:47:30;;;;;;;7.80;3.40;;;26.60;1.00;;;;;;8246776;28;20210;-71
2023/09/28 13:51:30;;;;;;;7.05;3.28;;;26.60;1.00;;;;;;8264430;28;20249;-68
2023/09/28 13:55:31;;;;;;;4.22;3.10;;;26.60;1.00;;;;;;8250856;28;20188;-70
2023/09/28 13:59:32;;;;;;;4.78;3.25;;;26.60;1.00;;;;;;8245847;28;20218;-68
2023/09/28 14:03:34;;;;;;;10.48;3.30;;;26.60;1.00;;;;;;8248259;28;20360;-69
2023/09/28 14:07:36;;;;;;;4.40;3.20;;;26.60;99.90;;;;;;8255729;28;20192;-69
2023/09/28 14:11:42;;;;;;;9.80;3.30;;;26.60;1.00;;;;;;8253139;28;20180;-70
2023/09/28 14:15:43;;;;;;;6.93;3.42;;;26.50;1.00;;;;;;8254079;28;20214;-68
2023/09/28 14:19:44;;;;;;;8.02;3.38;;;26.50;1.00;;;;;;8272758;28;20187;-67
2023/09/28 14:23:45;;;;;;;3.65;3.10;;;26.50;1.00;;;;;;8254236;28;20203;-71
2023/09/28 14:27:47;;;;;;;5.18;3.45;;;26.50;1.00;;;;;;8254960;28;20366;-69
2023/09/28 14:31:49;;;;;;;6.28;3.42;;;26.50;99.90;;;;;;8267766;28;20239;-69
2023/09/28 14:35:54;;;;;;;7.68;3.75;;;26.40;1.00;;;;;;8265768;28;20187;-69
2023/09/28 14:39:56;;;;;;;5.95;3.83;;;26.30;1.00;;;;;;8257256;28;20285;-72
2023/09/28 14:43:57;;;;;;;6.07;3.55;;;26.20;1.00;;;;;;8265222;28;20215;-71
2023/09/28 14:47:58;;;;;;;5.55;3.25;;;26.10;1.00;;;;;;8265355;28;20254;-69
2023/09/28 14:52:01;;;;;;;8.10;4.10;;;26.10;1.00;;;;;;8256199;28;20187;-71
2023/09/28 14:56:02;;;;;;;6.53;3.67;;;26.00;1.00;;;;;;8258873;28;20210;-69
2023/09/28 15:00:08;;;;;;;7.25;3.38;;;25.90;1.00;;;;;;8271604;28;20191;-68
2023/09/28 15:04:10;;;;;;;10.20;3.30;;;25.70;1.00;;;;;;8271709;28;20200;-68
2023/09/28 15:08:14;;;;;;;6.80;3.60;;;25.40;1.00;;;;;;8259882;28;20276;-69
2023/09/28 15:12:15;;;;;;;5.32;3.08;;;25.20;1.00;;;;;;8264140;28;20186;-68
2023/09/28 15:16:17;;;;;;;6.65;3.65;;;25.00;1.00;;;;;;8259890;28;20180;-68
2023/09/28 15:20:19;;;;;;;6.97;3.90;;;24.70;1.00;;;;;;8262782;28;20186;-70
2023/09/28 15:24:20;;;;;;;5.95;3.40;;;24.50;1.00;;;;;;8276015;28;20207;-68
2023/09/28 15:28:20;;;;;;;3.92;3.55;;;24.30;1.00;;;;;;8259804;28;20211;-70
2023/09/28 15:32:21;;;;;;;3.67;3.30;;;24.20;1.00;;;;;;8254122;28;20241;-70
2023/09/28 15:36:22;;;;;;;6.10;3.90;;;24.10;1.00;;;;;;8247235;28;20222;-70
2023/09/28 15:40:36;;;;;;;6.53;4.00;;;24.10;1.00;;;;;;8262372;28;20238;-70
2023/09/28 15:44:37;;;;;;;3.97;3.50;;;23.90;1.00;;;;;;8261428;28;20203;-70
2023/09/28 15:48:38;;;;;;;3.80;3.50;;;23.80;1.00;;;;;;8264463;28;20184;-70
2023/09/28 15:52:41;;;;;;;6.83;3.80;;;23.70;1.00;;;;;;8260088;28;20209;-70
2023/09/28 15:56:42;;;;;;;8.73;4.23;;;23.60;1.00;;;;;;8265936;28;20181;-71
2023/09/28 16:00:43;;;;;;;9.27;4.57;;;23.30;1.00;;;;;;8263158;28;20188;-71
2023/09/28 16:04:45;;;;;;;9.60;4.20;;;23.00;1.00;;;;;;8268823;28;20302;-71
2023/09/28 16:08:48;;;;;;;7.50;4.20;;;22.80;1.00;;;;;;8250321;28;20183;-71
2023/09/28 16:12:49;;;;;;;6.37;3.90;;;22.70;1.00;;;;;;8250799;28;20464;-71
2023/09/28 16:16:50;;;;;;;6.03;3.90;;;22.60;1.00;;;;;;8245942;28;20186;-71
2023/09/28 16:20:50;;;;;;;6.97;4.43;;;22.60;1.00;;;;;;8262421;28;20279;-71
2023/09/28 16:24:52;;;;;;;11.87;4.73;;;22.40;1.00;;;;;;8248925;28;20282;-70
2023/09/28 16:28:53;;;;;;;4.10;3.70;;;22.20;1.00;;;;;;8247395;28;20268;-70
2023/09/28 16:32:54;;;;;;;4.33;3.57;;;22.00;1.00;;;;;;8242436;28;20302;-70
2023/09/28 16:36:55;;;;;;;5.77;4.27;;;21.70;1.00;;;;;;8257383;28;20204;-70
2023/09/28 16:40:57;;;;;;;5.60;3.80;;;21.50;1.00;;;;;;8256255;28;20272;-70
2023/09/28 16:45:00;;;;;;;5.20;3.90;;;21.20;1.00;;;;;;8257401;28;20238;-70
2023/09/28 16:49:14;;;;;;;5.07;3.80;;;20.90;1.00;;;;;;8266001;28;20219;-69
2023/09/28 16:53:21;;;;;;;5.43;4.27;;;20.50;1.00;;;;;;8278259;28;20192;-69
2023/09/28 16:57:22;;;;;;;4.93;4.43;;;20.20;1.00;;;;;;8259911;28;20192;-70
2023/09/28 17:01:23;;;;;;;6.67;4.20;;;19.90;1.00;;;;;;8243241;28;20300;-69
2023/09/28 17:05:25;;;;;;;6.53;5.40;;;19.60;1.00;;;;;;8259993;28;20227;-70
2023/09/28 17:09:27;;;;;;;5.03;4.60;;;19.30;1.00;;;;;;8252032;28;20215;-69
2023/09/28 17:13:29;;;;;;;5.50;5.00;;;19.00;1.00;;;;;;8251654;28;20233;-70
2023/09/28 17:17:30;;;;;;;6.40;4.93;;;18.70;1.00;;;;;;8261687;28;20191;-69
2023/09/28 17:21:32;;;;;;;6.37;5.33;;;18.50;1.00;;;;;;8271478;28;20207;-70
2023/09/28 17:25:33;;;;;;;7.83;5.00;;;18.30;1.00;;;;;;8258455;28;20346;-70
2023/09/28 17:29:34;;;;;;;6.00;5.50;;;18.10;15.00;;;;;;8253176;28;20203;-70
2023/09/28 17:33:36;;;;;;;6.20;5.60;;;17.90;38.80;;;;;;8273881;28;20190;-70
2023/09/28 17:37:38;;;;;;;6.20;5.57;;;17.70;65.10;;;;;;8274036;28;20179;-70
2023/09/28 17:41:39;;;;;;;6.50;5.63;;;17.50;91.10;;;;;;8269767;28;20187;-68
2023/09/28 17:45:40;;;;;;;6.80;6.10;;;17.30;99.90;;;;;;8270256;28;20211;-70
2023/09/28 17:49:42;;;;;;;6.50;5.90;;;17.20;99.90;;;;;;8272275;28;20241;-70
2023/09/28 17:53:43;;;;;;;7.00;6.23;;;17.00;99.90;;;;;;8265040;28;20191;-70
2023/09/28 17:57:46;;;;;;;6.07;5.47;;;16.80;99.90;;;;;;8273095;28;20183;-70
2023/09/28 18:01:53;;;;;;;6.73;6.03;;;16.60;99.90;;;;;;8239052;28;20195;-70
2023/09/28 18:05:55;;;;;;;7.03;6.33;;;16.50;99.90;;;;;;8269426;28;20595;-70
2023/09/28 18:09:56;;;;;;;7.47;6.67;;;16.30;99.90;;;;;;8264558;28;20249;-65
2023/09/28 18:13:57;;;;;;;8.00;6.47;;;16.10;99.90;;;;;;8263652;28;20283;-68
2023/09/28 18:17:58;;;;;;;7.20;6.50;;;16.00;99.90;;;;;;8255452;28;20194;-70
2023/09/28 18:22:01;;;;;;;8.17;7.27;;;15.90;99.90;;;;;;8266714;28;20439;-70
2023/09/28 18:26:02;;;;;;;10.87;8.17;;;15.80;99.90;;;;;;8265787;28;20207;-69
2023/09/28 18:30:08;;;;;;;9.07;7.53;;;15.70;99.90;;;;;;8271979;28;20184;-69
2023/09/28 18:34:09;;;;;;;8.37;7.50;;;15.60;99.90;;;;;;8254667;28;20219;-69
2023/09/28 18:38:13;;;;;;;9.60;8.07;;;15.50;99.90;;;;;;8256586;28;20211;-70
2023/09/28 18:42:14;;;;;;;6.83;6.13;;;15.50;1.00;;;;;;8255497;28;20465;-70
2023/09/28 18:46:18;;;;;;;8.83;7.13;;;15.30;1.00;;;;;;8268995;28;20219;-71
2023/09/28 18:50:20;;;;;;;8.43;6.67;;;15.20;1.00;;;;;;8270137;28;20531;-69
2023/09/28 18:54:23;;;;;;;7.20;6.60;;;15.10;1.00;;;;;;8261588;28;20282;-69
2023/09/28 18:58:24;;;;;;;6.47;5.87;;;15.00;1.00;;;;;;8268105;28;20198;-69
2023/09/28 19:02:24;;;;;;;7.53;6.60;;;15.00;1.00;;;;;;8253686;28;20191;-69
2023/09/28 19:06:25;;;;;;;8.17;6.87;;;14.90;1.00;;;;;;8262341;28;20222;-70
2023/09/28 19:10:26;;;;;;;7.63;6.50;;;14.70;1.00;;;;;;8257105;28;20274;-69
2023/09/28 19:14:31;;;;;;;7.63;6.50;;;14.70;1.00;;;;;;8250821;28;20186;-69
2023/09/28 19:18:34;;;;;;;7.63;6.93;;;14.60;1.00;;;;;;8263751;28;20190;-68
2023/09/28 19:22:35;;;;;;;9.13;7.80;;;14.50;1.00;;;;;;8260204;28;20191;-66
2023/09/28 19:26:37;;;;;;;8.67;6.87;;;14.40;1.00;;;;;;8257434;28;20222;-68
2023/09/28 19:30:37;;;;;;;11.43;8.60;;;14.30;1.00;;;;;;8244399;28;20198;-67
2023/09/28 19:34:38;;;;;;;8.60;7.73;;;14.20;47.50;;;;;;8246998;28;20286;-68
2023/09/28 19:38:39;;;;;;;8.93;8.00;;;14.10;99.90;;;;;;8259397;28;20237;-68
2023/09/28 19:42:41;;;;;;;9.97;8.23;;;14.00;99.90;;;;;;8243336;28;20184;-68
2023/09/28 19:46:43;;;;;;;8.57;7.67;;;13.90;99.90;;;;;;8243602;28;20232;-67
2023/09/28 19:50:44;;;;;;;10.00;8.47;;;13.90;99.90;;;;;;8250085;28;20227;-67
2023/09/28 19:54:45;;;;;;;12.10;8.57;;;13.80;1.00;;;;;;8256866;28;20230;-68
2023/09/28 19:58:47;;;;;;;12.60;9.20;;;13.80;1.00;;;;;;8256571;28;20175;-67
2023/09/28 20:02:47;;;;;;;10.70;8.90;;;13.70;20.60;;;;;;8257711;28;20180;-68
2023/09/28 20:06:50;;;;;;;10.77;9.60;;;13.70;90.00;;;;;;8255183;28;20209;-66
2023/09/28 20:10:51;;;;;;;9.60;8.70;;;13.60;99.90;;;;;;8245422;28;20191;-65
2023/09/28 20:14:52;;;;;;;10.63;9.53;;;13.50;99.90;;;;;;8254853;28;20183;-66
2023/09/28 20:18:53;;;;;;;10.67;9.50;;;13.50;99.90;;;;;;8253333;28;20187;-65
2023/09/28 20:22:54;;;;;;;12.63;9.80;;;13.40;1.00;;;;;;8241308;28;20263;-66
2023/09/28 20:26:55;;;;;;;10.83;9.77;;;13.30;99.40;;;;;;8257358;28;20209;-66
2023/09/28 20:30:58;;;;;;;10.57;9.53;;;13.30;97.90;;;;;;8255206;28;20274;-68
2023/09/28 20:34:59;;;;;;;10.57;9.40;;;13.20;99.90;;;;;;8257750;28;20211;-67
2023/09/28 20:39:00;;;;;;;10.40;9.40;;;13.00;99.90;;;;;;8256046;28;20187;-65
2023/09/28 20:43:02;;;;;;;11.47;9.30;;;12.90;99.90;;;;;;8246574;28;20198;-65
2023/09/28 20:47:03;;;;;;;9.40;8.50;;;12.80;99.90;;;;;;8237890;28;20183;-71
2023/09/28 20:51:07;;;;;;;12.87;10.77;;;12.70;1.00;;;;;;8273814;28;20275;-72
2023/09/28 20:55:12;;;;;;;12.30;10.97;;;12.60;1.00;;;;;;8245863;28;20297;-70
2023/09/28 20:59:13;;;;;;;12.90;11.60;;;12.60;1.00;;;;;;8272478;28;20188;-70
2023/09/28 21:03:17;;;;;;;11.70;10.50;;;12.60;99.90;;;;;;8268474;28;20217;-69